createdAt,value
2017-05-28T00:00:35.112Z,0
2017-05-28T00:01:35.136Z,0
2017-05-28T00:02:35.177Z,0
2017-05-28T00:03:35.210Z,0
2017-05-28T00:04:35.265Z,0
2017-05-28T00:05:35.287Z,0
2017-05-28T00:06:35.322Z,0
2017-05-28T00:07:35.357Z,0
2017-05-28T00:08:35.385Z,0
2017-05-28T00:09:35.428Z,0
2017-05-28T00:10:35.450Z,0
2017-05-28T00:11:35.512Z,0
2017-05-28T00:12:35.527Z,0
2017-05-28T00:13:35.575Z,0
2017-05-28T00:14:35.585Z,0
2017-05-28T00:15:35.618Z,0
2017-05-28T00:16:35.692Z,0
2017-05-28T00:17:35.713Z,0
2017-05-28T00:18:35.739Z,0
2017-05-28T00:19:35.776Z,0
2017-05-28T00:20:35.809Z,0
2017-05-28T00:21:35.838Z,0
2017-05-28T00:22:35.872Z,0
2017-05-28T00:23:35.915Z,0
2017-05-28T00:24:35.954Z,0
2017-05-28T00:25:36.007Z,0
2017-05-28T00:26:36.014Z,0
2017-05-28T00:27:36.058Z,0
2017-05-28T00:28:36.155Z,0
2017-05-28T00:29:36.124Z,0
2017-05-28T00:30:36.160Z,0
2017-05-28T00:31:36.191Z,0
2017-05-28T00:32:36.228Z,0
2017-05-28T00:33:36.262Z,0
2017-05-28T00:34:36.286Z,0
2017-05-28T00:35:36.336Z,0
2017-05-28T00:36:36.374Z,0
2017-05-28T00:37:36.407Z,0
2017-05-28T00:38:36.449Z,0
2017-05-28T00:39:36.529Z,0
2017-05-28T00:40:36.510Z,0
2017-05-28T00:41:36.553Z,0
2017-05-28T00:42:36.589Z,0
2017-05-28T00:43:36.630Z,0
2017-05-28T00:44:36.669Z,0
2017-05-28T00:45:36.691Z,0
2017-05-28T00:46:36.722Z,0
2017-05-28T00:47:36.758Z,0
2017-05-28T00:48:36.805Z,0
2017-05-28T00:49:36.839Z,0
2017-05-28T00:50:36.853Z,0
2017-05-28T00:51:36.898Z,0
2017-05-28T00:52:36.927Z,0
2017-05-28T00:53:36.973Z,0
2017-05-28T00:54:37.018Z,0
2017-05-28T00:55:37.052Z,0
2017-05-28T00:56:37.073Z,0
2017-05-28T00:57:37.101Z,0
2017-05-28T00:58:37.214Z,0
2017-05-28T00:59:37.180Z,0
2017-05-28T01:00:37.218Z,0
2017-05-28T01:01:37.256Z,0
2017-05-28T01:02:37.325Z,0
2017-05-28T01:03:37.319Z,0
2017-05-28T01:04:37.363Z,0
2017-05-28T01:05:37.393Z,0
2017-05-28T01:06:37.423Z,0
2017-05-28T01:07:37.467Z,0
2017-05-28T01:08:37.501Z,0
2017-05-28T01:09:37.555Z,0
2017-05-28T01:10:37.570Z,0
2017-05-28T01:11:37.602Z,0
2017-05-28T01:12:37.645Z,0
2017-05-28T01:13:37.711Z,0
2017-05-28T01:14:37.725Z,0
2017-05-28T01:15:37.756Z,0
2017-05-28T01:16:37.765Z,0
2017-05-28T01:17:37.812Z,0
2017-05-28T01:18:37.853Z,0
2017-05-28T01:19:37.891Z,0
2017-05-28T01:20:37.909Z,0
2017-05-28T01:21:37.950Z,0
2017-05-28T01:22:37.991Z,0
2017-05-28T01:23:38.034Z,0
2017-05-28T01:24:38.106Z,0
2017-05-28T01:25:38.106Z,0
2017-05-28T01:26:38.146Z,0
2017-05-28T01:27:38.170Z,0
2017-05-28T01:28:38.177Z,0
2017-05-28T01:29:38.225Z,0
2017-05-28T01:30:38.273Z,0
2017-05-28T01:31:38.298Z,0
2017-05-28T01:32:38.338Z,0
2017-05-28T01:33:38.376Z,0
2017-05-28T01:34:38.420Z,0
2017-05-28T01:35:38.439Z,0
2017-05-28T01:36:38.469Z,0
2017-05-28T01:37:38.517Z,0
2017-05-28T01:38:38.538Z,0
2017-05-28T01:39:38.556Z,0
2017-05-28T01:40:38.622Z,0
2017-05-28T01:41:38.645Z,0
2017-05-28T01:42:38.685Z,0
2017-05-28T01:43:38.746Z,0
2017-05-28T01:44:38.786Z,0
2017-05-28T01:45:38.775Z,0
2017-05-28T01:46:38.821Z,0
2017-05-28T01:47:38.867Z,0
2017-05-28T01:48:38.891Z,0
2017-05-28T01:49:38.920Z,0
2017-05-28T01:50:38.943Z,0
2017-05-28T01:51:39.062Z,0
2017-05-28T01:52:39.238Z,0
2017-05-28T01:53:39.298Z,0
2017-05-28T01:54:39.092Z,0
2017-05-28T01:55:39.379Z,0
2017-05-28T01:56:39.163Z,0
2017-05-28T01:57:39.201Z,0
2017-05-28T01:58:39.231Z,0
2017-05-28T01:59:39.270Z,0
2017-05-28T02:00:39.296Z,0
2017-05-28T02:01:39.441Z,0
2017-05-28T02:02:39.398Z,0
2017-05-28T02:03:39.412Z,0
2017-05-28T02:04:39.443Z,0
2017-05-28T02:05:39.486Z,0
2017-05-28T02:06:39.504Z,0
2017-05-28T02:07:39.528Z,0
2017-05-28T02:08:39.788Z,0
2017-05-28T02:09:39.834Z,0
2017-05-28T02:10:39.659Z,0
2017-05-28T02:11:39.932Z,0
2017-05-28T02:12:39.720Z,0
2017-05-28T02:13:39.981Z,0
2017-05-28T02:14:39.799Z,4
2017-05-28T02:15:39.826Z,4
2017-05-28T02:16:39.839Z,4
2017-05-28T02:17:39.901Z,0
2017-05-28T02:18:39.935Z,0
2017-05-28T02:19:39.958Z,4
2017-05-28T02:20:39.992Z,4
2017-05-28T02:21:40.028Z,4
2017-05-28T02:22:40.045Z,4
2017-05-28T02:23:40.101Z,8
2017-05-28T02:24:40.132Z,4
2017-05-28T02:25:40.168Z,8
2017-05-28T02:26:40.198Z,8
2017-05-28T02:27:40.241Z,8
2017-05-28T02:28:40.261Z,8
2017-05-28T02:29:40.305Z,8
2017-05-28T02:30:40.340Z,12
2017-05-28T02:31:40.423Z,12
2017-05-28T02:32:40.395Z,16
2017-05-28T02:33:40.439Z,16
2017-05-28T02:34:40.469Z,20
2017-05-28T02:35:40.711Z,24
2017-05-28T02:36:40.550Z,24
2017-05-28T02:37:40.577Z,28
2017-05-28T02:38:41.018Z,32
2017-05-28T02:39:40.863Z,32
2017-05-28T02:40:41.099Z,40
2017-05-28T02:41:41.531Z,40
2017-05-28T02:42:40.964Z,48
2017-05-28T02:43:40.797Z,52
2017-05-28T02:44:41.286Z,60
2017-05-28T02:45:40.865Z,64
2017-05-28T02:46:41.095Z,68
2017-05-28T02:47:41.181Z,76
2017-05-28T02:48:40.941Z,80
2017-05-28T02:49:40.983Z,88
2017-05-28T02:50:41.291Z,96
2017-05-28T02:51:41.288Z,104
2017-05-28T02:52:41.309Z,112
2017-05-28T02:53:41.134Z,124
2017-05-28T02:54:41.162Z,132
2017-05-28T02:55:41.190Z,140
2017-05-28T02:56:41.270Z,152
2017-05-28T02:57:41.272Z,164
2017-05-28T02:58:41.309Z,172
2017-05-28T02:59:41.327Z,184
2017-05-28T03:00:41.345Z,196
2017-05-28T03:01:41.400Z,208
2017-05-28T03:02:41.438Z,224
2017-05-28T03:03:41.464Z,232
2017-05-28T03:04:41.506Z,248
2017-05-28T03:05:41.540Z,260
2017-05-28T03:06:41.553Z,276
2017-05-28T03:07:41.595Z,292
2017-05-28T03:08:41.638Z,308
2017-05-28T03:09:41.669Z,320
2017-05-28T03:10:41.697Z,340
2017-05-28T03:11:41.739Z,356
2017-05-28T03:12:41.776Z,372
2017-05-28T03:13:41.807Z,388
2017-05-28T03:14:41.848Z,408
2017-05-28T03:15:42.112Z,424
2017-05-28T03:16:41.912Z,440
2017-05-28T03:17:41.935Z,456
2017-05-28T03:18:41.983Z,472
2017-05-28T03:19:41.995Z,488
2017-05-28T03:20:42.046Z,508
2017-05-28T03:21:42.084Z,524
2017-05-28T03:22:42.098Z,544
2017-05-28T03:23:42.157Z,560
2017-05-28T03:24:42.178Z,576
2017-05-28T03:25:42.462Z,596
2017-05-28T03:26:42.250Z,612
2017-05-28T03:27:42.291Z,632
2017-05-28T03:28:42.300Z,648
2017-05-28T03:29:42.412Z,668
2017-05-28T03:30:42.386Z,684
2017-05-28T03:31:42.417Z,704
2017-05-28T03:32:42.454Z,720
2017-05-28T03:33:42.488Z,740
2017-05-28T03:34:42.500Z,760
2017-05-28T03:35:42.558Z,776
2017-05-28T03:36:42.582Z,796
2017-05-28T03:37:42.623Z,812
2017-05-28T03:38:42.659Z,832
2017-05-28T03:39:42.689Z,848
2017-05-28T03:40:42.722Z,864
2017-05-28T03:41:42.759Z,880
2017-05-28T03:42:42.786Z,896
2017-05-28T03:43:42.836Z,912
2017-05-28T03:44:42.859Z,928
2017-05-28T03:45:42.899Z,944
2017-05-28T03:46:42.918Z,964
2017-05-28T03:47:42.960Z,980
2017-05-28T03:48:43.004Z,996
2017-05-28T03:49:43.022Z,1012
2017-05-28T03:50:43.046Z,1032
2017-05-28T03:51:43.096Z,1048
2017-05-28T03:52:43.127Z,1064
2017-05-28T03:53:43.158Z,1084
2017-05-28T03:54:43.205Z,1100
2017-05-28T03:55:43.235Z,1116
2017-05-28T03:56:43.265Z,1136
2017-05-28T03:57:43.289Z,1160
2017-05-28T03:58:43.322Z,1196
2017-05-28T03:59:43.372Z,1224
2017-05-28T04:00:43.462Z,1260
2017-05-28T04:01:43.592Z,1324
2017-05-28T04:02:43.537Z,1392
2017-05-28T04:03:43.570Z,1476
2017-05-28T04:04:43.600Z,1548
2017-05-28T04:05:43.642Z,1600
2017-05-28T04:06:43.748Z,1636
2017-05-28T04:07:43.705Z,1644
2017-05-28T04:08:43.717Z,1680
2017-05-28T04:09:43.759Z,1628
2017-05-28T04:10:43.814Z,1584
2017-05-28T04:11:43.940Z,1704
2017-05-28T04:12:43.884Z,2216
2017-05-28T04:13:43.909Z,3208
2017-05-28T04:14:43.934Z,3928
2017-05-28T04:15:43.960Z,4188
2017-05-28T04:16:44.101Z,4492
2017-05-28T04:17:44.010Z,4916
2017-05-28T04:18:44.065Z,6088
2017-05-28T04:19:44.104Z,7400
2017-05-28T04:20:44.142Z,7636
2017-05-28T04:21:44.166Z,7196
2017-05-28T04:22:44.211Z,6432
2017-05-28T04:23:44.270Z,5320
2017-05-28T04:24:44.261Z,4280
2017-05-28T04:25:44.320Z,3512
2017-05-28T04:26:44.308Z,3096
2017-05-28T04:27:44.377Z,2652
2017-05-28T04:28:44.422Z,2404
2017-05-28T04:29:44.461Z,2432
2017-05-28T04:30:44.493Z,2400
2017-05-28T04:31:44.525Z,2304
2017-05-28T04:32:44.567Z,2296
2017-05-28T04:33:44.591Z,2300
2017-05-28T04:34:44.649Z,2416
2017-05-28T04:35:44.666Z,2568
2017-05-28T04:36:44.690Z,2604
2017-05-28T04:37:44.764Z,2444
2017-05-28T04:38:44.782Z,2416
2017-05-28T04:39:44.825Z,2404
2017-05-28T04:40:44.857Z,2400
2017-05-28T04:41:44.873Z,2432
2017-05-28T04:42:44.917Z,2412
2017-05-28T04:43:44.975Z,2384
2017-05-28T04:44:45.008Z,2372
2017-05-28T04:45:45.045Z,2376
2017-05-28T04:46:45.078Z,2412
2017-05-28T04:47:45.108Z,2444
2017-05-28T04:48:45.155Z,2488
2017-05-28T04:49:45.181Z,2552
2017-05-28T04:50:45.221Z,2600
2017-05-28T04:51:45.241Z,2620
2017-05-28T04:52:45.294Z,2680
2017-05-28T04:53:45.324Z,2644
2017-05-28T04:54:45.372Z,2672
2017-05-28T04:55:45.388Z,2672
2017-05-28T04:56:45.419Z,2676
2017-05-28T04:57:45.778Z,2620
2017-05-28T04:58:45.512Z,2636
2017-05-28T04:59:45.542Z,2668
2017-05-28T05:00:45.554Z,2684
2017-05-28T05:01:45.591Z,2768
2017-05-28T05:02:45.744Z,2788
2017-05-28T05:03:45.675Z,2996
2017-05-28T05:04:45.722Z,3032
2017-05-28T05:05:45.768Z,3280
2017-05-28T05:06:45.759Z,4032
2017-05-28T05:07:45.960Z,3924
2017-05-28T05:08:45.852Z,3656
2017-05-28T05:09:45.877Z,5544
2017-05-28T05:10:45.909Z,4076
2017-05-28T05:11:45.977Z,6800
2017-05-28T05:12:46.123Z,6052
2017-05-28T05:13:46.049Z,5684
2017-05-28T05:14:46.058Z,10916
2017-05-28T05:15:46.112Z,14416
2017-05-28T05:16:46.332Z,5480
2017-05-28T05:17:46.178Z,3500
2017-05-28T05:18:46.221Z,4508
2017-05-28T05:19:46.468Z,3232
2017-05-28T05:20:46.266Z,3652
2017-05-28T05:21:46.326Z,3440
2017-05-28T05:22:46.373Z,4768
2017-05-28T05:23:46.407Z,5092
2017-05-28T05:24:46.428Z,3808
2017-05-28T05:25:46.459Z,4768
2017-05-28T05:26:46.516Z,4732
2017-05-28T05:27:46.541Z,8112
2017-05-28T05:28:46.589Z,10332
2017-05-28T05:29:46.607Z,12408
2017-05-28T05:30:46.643Z,18208
2017-05-28T05:31:46.690Z,25248
2017-05-28T05:32:46.739Z,23616
2017-05-28T05:33:46.770Z,12008
2017-05-28T05:34:46.788Z,18112
2017-05-28T05:35:46.847Z,22528
2017-05-28T05:36:46.881Z,28320
2017-05-28T05:37:46.915Z,26816
2017-05-28T05:38:46.965Z,16384
2017-05-28T05:39:47.187Z,16160
2017-05-28T05:40:47.035Z,9876
2017-05-28T05:41:47.096Z,10472
2017-05-28T05:42:47.102Z,7408
2017-05-28T05:43:47.145Z,3600
2017-05-28T05:44:47.198Z,3272
2017-05-28T05:45:47.227Z,3612
2017-05-28T05:46:47.268Z,3680
2017-05-28T05:47:47.314Z,4088
2017-05-28T05:48:47.346Z,4636
2017-05-28T05:49:47.381Z,3548
2017-05-28T05:50:47.417Z,3792
2017-05-28T05:51:47.454Z,4648
2017-05-28T05:52:47.498Z,4344
2017-05-28T05:53:47.614Z,4708
2017-05-28T05:54:47.577Z,5800
2017-05-28T05:55:47.595Z,5192
2017-05-28T05:56:47.633Z,6160
2017-05-28T05:57:47.783Z,5316
2017-05-28T05:58:47.825Z,6684
2017-05-28T05:59:47.768Z,8652
2017-05-28T06:00:47.806Z,6968
2017-05-28T06:01:47.848Z,6204
2017-05-28T06:02:47.896Z,7696
2017-05-28T06:03:48.002Z,8736
2017-05-28T06:04:47.976Z,8772
2017-05-28T06:05:48.000Z,17856
2017-05-28T06:06:48.022Z,12144
2017-05-28T06:07:48.074Z,10340
2017-05-28T06:08:48.205Z,11996
2017-05-28T06:09:48.144Z,14432
2017-05-28T06:10:48.188Z,14968
2017-05-28T06:11:48.225Z,26592
2017-05-28T06:12:48.261Z,29600
2017-05-28T06:13:48.313Z,15968
2017-05-28T06:14:48.346Z,15456
2017-05-28T06:15:48.383Z,45632
2017-05-28T06:16:48.418Z,19232
2017-05-28T06:17:48.454Z,46208
2017-05-28T06:18:48.509Z,45728
2017-05-28T06:19:48.532Z,47200
2017-05-28T06:20:48.573Z,45952
2017-05-28T06:21:48.602Z,40672
2017-05-28T06:22:48.661Z,34816
2017-05-28T06:23:48.706Z,28992
2017-05-28T06:24:48.730Z,19584
2017-05-28T06:25:48.797Z,13248
2017-05-28T06:26:48.829Z,11560
2017-05-28T06:27:48.857Z,11356
2017-05-28T06:28:48.906Z,11308
2017-05-28T06:29:48.961Z,11188
2017-05-28T06:30:48.998Z,11068
2017-05-28T06:31:49.048Z,11004
2017-05-28T06:32:49.086Z,10956
2017-05-28T06:33:49.115Z,10924
2017-05-28T06:34:49.168Z,10860
2017-05-28T06:35:49.209Z,10828
2017-05-28T06:36:49.224Z,10804
2017-05-28T06:37:49.307Z,10756
2017-05-28T06:38:49.331Z,10716
2017-05-28T06:39:49.388Z,10640
2017-05-28T06:40:49.434Z,10632
2017-05-28T06:41:49.459Z,10580
2017-05-28T06:42:49.506Z,10512
2017-05-28T06:43:49.582Z,10464
2017-05-28T06:44:49.612Z,10404
2017-05-28T06:45:49.660Z,10664
2017-05-28T06:46:49.715Z,10344
2017-05-28T06:47:49.726Z,10296
2017-05-28T06:48:49.798Z,10276
2017-05-28T06:49:49.835Z,10200
2017-05-28T06:50:49.888Z,10180
2017-05-28T06:51:49.936Z,10168
2017-05-28T06:52:49.981Z,10064
2017-05-28T06:53:50.034Z,10084
2017-05-28T06:54:50.169Z,10004
2017-05-28T06:55:50.119Z,9996
2017-05-28T06:56:50.163Z,9992
2017-05-28T06:57:50.202Z,9928
2017-05-28T06:58:50.255Z,9900
2017-05-28T06:59:50.311Z,9948
2017-05-28T07:00:50.355Z,9924
2017-05-28T07:01:50.404Z,9860
2017-05-28T07:02:50.653Z,9852
2017-05-28T07:03:50.502Z,9844
2017-05-28T07:04:50.523Z,9852
2017-05-28T07:05:50.563Z,9908
2017-05-28T07:06:50.630Z,9904
2017-05-28T07:07:50.661Z,9940
2017-05-28T07:08:50.679Z,10000
2017-05-28T07:09:51.004Z,10060
2017-05-28T07:10:50.820Z,10032
2017-05-28T07:11:50.866Z,10116
2017-05-28T07:12:50.907Z,10168
2017-05-28T07:13:50.963Z,10244
2017-05-28T07:14:51.014Z,10312
2017-05-28T07:15:51.054Z,10392
2017-05-28T07:16:51.094Z,10420
2017-05-28T07:17:51.147Z,10528
2017-05-28T07:18:51.262Z,10640
2017-05-28T07:19:51.375Z,10756
2017-05-28T07:20:51.266Z,10856
2017-05-28T07:21:51.325Z,11076
2017-05-28T07:22:51.379Z,11340
2017-05-28T07:23:51.413Z,11864
2017-05-28T07:24:51.480Z,12408
2017-05-28T07:25:51.530Z,13248
2017-05-28T07:26:51.561Z,14944
2017-05-28T07:27:51.620Z,18720
2017-05-28T07:28:51.675Z,21920
2017-05-28T07:29:51.729Z,26912
2017-05-28T07:30:51.768Z,30752
2017-05-28T07:31:51.824Z,32576
2017-05-28T07:32:51.872Z,32256
2017-05-28T07:33:51.944Z,32448
2017-05-28T07:34:51.957Z,39072
2017-05-28T07:35:52.009Z,43936
2017-05-28T07:36:52.035Z,43616
2017-05-28T07:37:52.106Z,48192
2017-05-28T07:38:52.136Z,49056
2017-05-28T07:39:52.188Z,46336
2017-05-28T07:40:52.226Z,42464
2017-05-28T07:41:52.320Z,43488
2017-05-28T07:42:52.316Z,48352
2017-05-28T07:43:52.389Z,51616
2017-05-28T07:44:52.446Z,53856
2017-05-28T07:45:52.476Z,55936
2017-05-28T07:46:52.539Z,52704
2017-05-28T07:47:52.571Z,49248
2017-05-28T07:48:52.634Z,51040
2017-05-28T07:49:52.679Z,52448
2017-05-28T07:50:52.727Z,53792
2017-05-28T07:51:52.974Z,48928
2017-05-28T07:52:52.846Z,41024
2017-05-28T07:53:52.886Z,39936
2017-05-28T07:54:52.943Z,42720
2017-05-28T07:55:52.995Z,42304
2017-05-28T07:56:53.039Z,41248
2017-05-28T07:57:53.079Z,47168
2017-05-28T07:58:53.143Z,53824
2017-05-28T07:59:53.178Z,55296
2017-05-28T08:00:53.236Z,56416
2017-05-28T08:01:53.278Z,57344
2017-05-28T08:02:53.351Z,54208
2017-05-28T08:03:53.371Z,52576
2017-05-28T08:04:53.414Z,52480
2017-05-28T08:05:53.470Z,57536
2017-05-28T08:06:53.531Z,58688
2017-05-28T08:07:53.553Z,50368
2017-05-28T08:08:53.624Z,42720
2017-05-28T08:09:53.652Z,37152
2017-05-28T08:10:53.728Z,42944
2017-05-28T08:11:53.749Z,47584
2017-05-28T08:12:53.828Z,44224
2017-05-28T08:13:53.855Z,41248
2017-05-28T08:14:53.884Z,55328
2017-05-28T08:15:53.968Z,56096
2017-05-28T08:16:54.017Z,59584
2017-05-28T08:17:54.052Z,60064
2017-05-28T08:18:54.091Z,55872
2017-05-28T08:19:54.158Z,50208
2017-05-28T08:20:54.218Z,50624
2017-05-28T08:21:54.256Z,52480
2017-05-28T08:22:54.321Z,51936
2017-05-28T08:23:54.349Z,51904
2017-05-28T08:24:54.399Z,53440
2017-05-28T08:25:54.464Z,48128
2017-05-28T08:26:54.516Z,48480
2017-05-28T08:27:54.544Z,50496
2017-05-28T08:28:54.626Z,52192
2017-05-28T08:29:54.647Z,51136
2017-05-28T08:30:54.709Z,50720
2017-05-28T08:31:54.741Z,52608
2017-05-28T08:32:54.795Z,50208
2017-05-28T08:33:54.853Z,47552
2017-05-28T08:34:54.917Z,46080
2017-05-28T08:35:54.954Z,46976
2017-05-28T08:36:55.020Z,47584
2017-05-28T08:37:55.065Z,45504
2017-05-28T08:38:55.100Z,45504
2017-05-28T08:39:55.166Z,47520
2017-05-28T08:40:55.197Z,31936
2017-05-28T08:41:55.276Z,40768
2017-05-28T08:42:55.322Z,49600
2017-05-28T08:43:55.343Z,50912
2017-05-28T08:44:55.424Z,53248
2017-05-28T08:45:55.453Z,52384
2017-05-28T08:46:55.537Z,49760
2017-05-28T08:47:55.561Z,47744
2017-05-28T08:48:55.675Z,26368
2017-05-28T08:49:55.699Z,24896
2017-05-28T08:50:55.740Z,22880
2017-05-28T08:51:55.786Z,31520
2017-05-28T08:52:55.837Z,41184
2017-05-28T08:53:55.871Z,43360
2017-05-28T08:54:55.946Z,44800
2017-05-28T08:55:55.991Z,51008
2017-05-28T08:56:56.039Z,52448
2017-05-28T08:57:56.088Z,52512
2017-05-28T08:58:56.126Z,49504
2017-05-28T08:59:56.187Z,50752
2017-05-28T09:00:56.251Z,49472
2017-05-28T09:01:56.287Z,35968
2017-05-28T09:02:56.336Z,44672
2017-05-28T09:03:56.376Z,42400
2017-05-28T09:04:56.423Z,41088
2017-05-28T09:05:56.497Z,42496
2017-05-28T09:06:56.601Z,43680
2017-05-28T09:07:56.593Z,41216
2017-05-28T09:08:56.654Z,39936
2017-05-28T09:09:56.699Z,38880
2017-05-28T09:10:56.751Z,34176
2017-05-28T09:11:56.790Z,29568
2017-05-28T09:12:56.853Z,28160
2017-05-28T09:13:56.887Z,25440
2017-05-28T09:14:56.944Z,23328
2017-05-28T09:15:57.018Z,19936
2017-05-28T09:16:57.032Z,20544
2017-05-28T09:17:57.117Z,15552
2017-05-28T09:18:57.194Z,14432
2017-05-28T09:19:57.216Z,13548
2017-05-28T09:20:57.274Z,14020
2017-05-28T09:21:57.294Z,14024
2017-05-28T09:22:57.362Z,15808
2017-05-28T09:23:57.434Z,17120
2017-05-28T09:24:57.462Z,17984
2017-05-28T09:25:57.531Z,18720
2017-05-28T09:26:57.550Z,17120
2017-05-28T09:27:57.649Z,16800
2017-05-28T09:28:57.695Z,17344
2017-05-28T09:29:57.743Z,18016
2017-05-28T09:30:57.736Z,17792
2017-05-28T09:31:57.829Z,17760
2017-05-28T09:32:57.918Z,17056
2017-05-28T09:33:57.944Z,16832
2017-05-28T09:34:57.981Z,16480
2017-05-28T09:35:58.022Z,16896
2017-05-28T09:36:58.078Z,16480
2017-05-28T09:37:58.128Z,16032
2017-05-28T09:38:58.205Z,16384
2017-05-28T09:39:58.257Z,16288
2017-05-28T09:40:58.306Z,16160
2017-05-28T09:41:58.359Z,15680
2017-05-28T09:42:58.412Z,15680
2017-05-28T09:43:58.449Z,15712
2017-05-28T09:44:58.505Z,15552
2017-05-28T09:45:58.546Z,15200
2017-05-28T09:46:58.607Z,15264
2017-05-28T09:47:58.653Z,15488
2017-05-28T09:48:58.728Z,15328
2017-05-28T09:49:58.774Z,15232
2017-05-28T09:50:58.825Z,15040
2017-05-28T09:51:58.884Z,14944
2017-05-28T09:52:58.943Z,14880
2017-05-28T09:53:58.995Z,14944
2017-05-28T09:54:59.053Z,14816
2017-05-28T09:55:59.073Z,14976
2017-05-28T09:56:59.225Z,15040
2017-05-28T09:57:59.305Z,15072
2017-05-28T09:58:59.274Z,14944
2017-05-28T09:59:59.327Z,14816
2017-05-28T10:00:59.348Z,14880
2017-05-28T10:01:59.445Z,14976
2017-05-28T10:02:59.503Z,14944
2017-05-28T10:03:59.537Z,14976
2017-05-28T10:04:59.611Z,14912
2017-05-28T10:05:59.663Z,14784
2017-05-28T10:06:59.714Z,14688
2017-05-28T10:07:59.771Z,14560
2017-05-28T10:08:59.812Z,14176
2017-05-28T10:09:59.843Z,13568
2017-05-28T10:10:59.925Z,14272
2017-05-28T10:11:59.958Z,14400
2017-05-28T10:13:00.047Z,14464
2017-05-28T10:14:00.092Z,14528
2017-05-28T10:15:00.141Z,14656
2017-05-28T10:16:00.207Z,14688
2017-05-28T10:17:00.245Z,14752
2017-05-28T10:18:00.360Z,14816
2017-05-28T10:19:00.366Z,14848
2017-05-28T10:20:00.381Z,15040
2017-05-28T10:21:00.451Z,15040
2017-05-28T10:22:00.503Z,15264
2017-05-28T10:23:00.549Z,14368
2017-05-28T10:24:00.600Z,13536
2017-05-28T10:25:00.701Z,14592
2017-05-28T10:26:00.726Z,14432
2017-05-28T10:27:00.781Z,14464
2017-05-28T10:28:00.810Z,15424
2017-05-28T10:29:00.874Z,14656
2017-05-28T10:30:00.920Z,15424
2017-05-28T10:31:00.957Z,13232
2017-05-28T10:32:01.028Z,12492
2017-05-28T10:33:01.079Z,12440
2017-05-28T10:34:01.132Z,12968
2017-05-28T10:35:01.170Z,13788
2017-05-28T10:36:01.227Z,15520
2017-05-28T10:37:01.268Z,15520
2017-05-28T10:38:01.315Z,14944
2017-05-28T10:39:01.371Z,13180
2017-05-28T10:40:01.400Z,13152
2017-05-28T10:41:01.453Z,13728
2017-05-28T10:42:01.513Z,14656
2017-05-28T10:43:01.573Z,15200
2017-05-28T10:44:01.612Z,15136
2017-05-28T10:45:01.656Z,15040
2017-05-28T10:46:01.717Z,14816
2017-05-28T10:47:01.739Z,14208
2017-05-28T10:48:01.797Z,13260
2017-05-28T10:49:01.849Z,11612
2017-05-28T10:50:01.889Z,10356
2017-05-28T10:51:01.934Z,9936
2017-05-28T10:52:01.981Z,9276
2017-05-28T10:53:02.088Z,9288
2017-05-28T10:54:02.068Z,9288
2017-05-28T10:55:02.110Z,8644
2017-05-28T10:56:02.150Z,8500
2017-05-28T10:57:02.199Z,9096
2017-05-28T10:58:02.280Z,9360
2017-05-28T10:59:02.313Z,9176
2017-05-28T11:00:02.363Z,8824
2017-05-28T11:01:02.383Z,9088
2017-05-28T11:02:02.429Z,9192
2017-05-28T11:03:02.511Z,9656
2017-05-28T11:04:02.547Z,9492
2017-05-28T11:05:02.570Z,9964
2017-05-28T11:06:02.623Z,9572
2017-05-28T11:07:02.676Z,9432
2017-05-28T11:08:02.714Z,8572
2017-05-28T11:09:02.749Z,8444
2017-05-28T11:10:02.803Z,8796
2017-05-28T11:11:02.830Z,8660
2017-05-28T11:12:02.885Z,8448
2017-05-28T11:13:02.950Z,8504
2017-05-28T11:14:02.983Z,8624
2017-05-28T11:15:03.041Z,8180
2017-05-28T11:16:03.048Z,7824
2017-05-28T11:17:03.117Z,7484
2017-05-28T11:18:03.167Z,7200
2017-05-28T11:19:03.210Z,6800
2017-05-28T11:20:03.271Z,6176
2017-05-28T11:21:03.288Z,5844
2017-05-28T11:22:03.347Z,5648
2017-05-28T11:23:03.383Z,6048
2017-05-28T11:24:03.413Z,6320
2017-05-28T11:25:03.477Z,6192
2017-05-28T11:26:03.503Z,6156
2017-05-28T11:27:03.555Z,5884
2017-05-28T11:28:03.610Z,5540
2017-05-28T11:29:03.636Z,5228
2017-05-28T11:30:03.730Z,5032
2017-05-28T11:31:03.712Z,4880
2017-05-28T11:32:03.773Z,4748
2017-05-28T11:33:03.830Z,4764
2017-05-28T11:34:03.853Z,4876
2017-05-28T11:35:03.910Z,4876
2017-05-28T11:36:03.953Z,4884
2017-05-28T11:37:03.976Z,4840
2017-05-28T11:38:04.030Z,4828
2017-05-28T11:39:04.089Z,4788
2017-05-28T11:40:04.129Z,4816
2017-05-28T11:41:04.186Z,4812
2017-05-28T11:42:04.196Z,4872
2017-05-28T11:43:04.258Z,4948
2017-05-28T11:44:04.295Z,5068
2017-05-28T11:45:04.419Z,5192
2017-05-28T11:46:04.368Z,5244
2017-05-28T11:47:04.408Z,5244
2017-05-28T11:48:04.456Z,5188
2017-05-28T11:49:04.496Z,5168
2017-05-28T11:50:04.575Z,5212
2017-05-28T11:51:04.605Z,5264
2017-05-28T11:52:04.670Z,5328
2017-05-28T11:53:04.686Z,5316
2017-05-28T11:54:04.732Z,5460
2017-05-28T11:55:04.759Z,5600
2017-05-28T11:56:04.808Z,5600
2017-05-28T11:57:04.861Z,5864
2017-05-28T11:58:04.884Z,6112
2017-05-28T11:59:04.959Z,6180
2017-05-28T12:00:05.018Z,6280
2017-05-28T12:01:05.035Z,6364
2017-05-28T12:02:05.084Z,6324
2017-05-28T12:03:05.108Z,6268
2017-05-28T12:04:05.143Z,6276
2017-05-28T12:05:05.208Z,6332
2017-05-28T12:06:05.253Z,6540
2017-05-28T12:07:05.342Z,6848
2017-05-28T12:08:05.327Z,7012
2017-05-28T12:09:05.377Z,7056
2017-05-28T12:10:05.511Z,7152
2017-05-28T12:11:05.468Z,7188
2017-05-28T12:12:05.488Z,7276
2017-05-28T12:13:05.548Z,7368
2017-05-28T12:14:05.599Z,7508
2017-05-28T12:15:05.633Z,7620
2017-05-28T12:16:05.680Z,7652
2017-05-28T12:17:05.698Z,7608
2017-05-28T12:18:05.746Z,7480
2017-05-28T12:19:05.803Z,7216
2017-05-28T12:20:05.856Z,7164
2017-05-28T12:21:05.872Z,7336
2017-05-28T12:22:05.935Z,7456
2017-05-28T12:23:05.949Z,7192
2017-05-28T12:24:06.007Z,7004
2017-05-28T12:25:06.053Z,7000
2017-05-28T12:26:06.112Z,6976
2017-05-28T12:27:06.154Z,6820
2017-05-28T12:28:06.184Z,6532
2017-05-28T12:29:06.232Z,6124
2017-05-28T12:30:06.265Z,5872
2017-05-28T12:31:06.304Z,5624
2017-05-28T12:32:06.350Z,5496
2017-05-28T12:33:06.409Z,5416
2017-05-28T12:34:06.460Z,5348
2017-05-28T12:35:06.500Z,5476
2017-05-28T12:36:06.540Z,5512
2017-05-28T12:37:06.572Z,5256
2017-05-28T12:38:06.623Z,5404
2017-05-28T12:39:06.656Z,5772
2017-05-28T12:40:06.695Z,5832
2017-05-28T12:41:06.762Z,5852
2017-05-28T12:42:06.809Z,5720
2017-05-28T12:43:06.842Z,5956
2017-05-28T12:44:06.884Z,6352
2017-05-28T12:45:07.077Z,6208
2017-05-28T12:46:06.958Z,5820
2017-05-28T12:47:07.002Z,5272
2017-05-28T12:48:07.055Z,4920
2017-05-28T12:49:07.072Z,4652
2017-05-28T12:50:07.249Z,4244
2017-05-28T12:51:07.171Z,3816
2017-05-28T12:52:07.203Z,3544
2017-05-28T12:53:07.250Z,3360
2017-05-28T12:54:07.305Z,3200
2017-05-28T12:55:07.348Z,3024
2017-05-28T12:56:07.403Z,2912
2017-05-28T12:57:07.442Z,2840
2017-05-28T12:58:07.667Z,2796
2017-05-28T12:59:07.527Z,2796
2017-05-28T13:00:07.551Z,2820
2017-05-28T13:01:07.633Z,2816
2017-05-28T13:02:07.851Z,2844
2017-05-28T13:03:07.750Z,2856
2017-05-28T13:04:07.745Z,2864
2017-05-28T13:05:07.777Z,2888
2017-05-28T13:06:07.831Z,2924
2017-05-28T13:07:07.866Z,2928
2017-05-28T13:08:07.945Z,3004
2017-05-28T13:09:07.958Z,3092
2017-05-28T13:10:07.953Z,3120
2017-05-28T13:11:08.037Z,3080
2017-05-28T13:12:08.084Z,3004
2017-05-28T13:13:08.105Z,2924
2017-05-28T13:14:08.554Z,2736
2017-05-28T13:15:08.205Z,2624
2017-05-28T13:16:08.239Z,2752
2017-05-28T13:17:08.312Z,2804
2017-05-28T13:18:08.362Z,2764
2017-05-28T13:19:08.365Z,2716
2017-05-28T13:20:08.411Z,2664
2017-05-28T13:21:08.457Z,2572
2017-05-28T13:22:08.510Z,2532
2017-05-28T13:23:08.550Z,2468
2017-05-28T13:24:08.602Z,2364
2017-05-28T13:25:08.734Z,2284
2017-05-28T13:26:08.675Z,2312
2017-05-28T13:27:08.709Z,2312
2017-05-28T13:28:08.744Z,2308